createdAt,value
2023-04-15T00:00:20.969Z,15.07
2023-04-15T00:03:24.774Z,14.55
2023-04-15T00:06:28.150Z,14.95
2023-04-15T00:09:31.534Z,18.05
2023-04-15T00:12:34.472Z,14.77
2023-04-15T00:15:37.804Z,16.33
2023-04-15T00:18:41.318Z,15.88
2023-04-15T00:21:44.251Z,14.35
2023-04-15T00:24:47.187Z,14.07
2023-04-15T00:27:50.166Z,14.10
2023-04-15T00:30:53.222Z,15.07
2023-04-15T00:33:56.291Z,14.05
2023-04-15T00:36:59.794Z,14.20
2023-04-15T00:40:05.046Z,15.40
2023-04-15T00:43:08.050Z,14.33
2023-04-15T00:46:11.440Z,15.60
2023-04-15T00:49:14.483Z,14.02
2023-04-15T00:52:17.492Z,14.55
2023-04-15T00:55:20.519Z,13.90
2023-04-15T00:58:23.445Z,13.93
2023-04-15T01:01:26.602Z,13.33
2023-04-15T01:04:29.695Z,13.48
2023-04-15T01:07:32.909Z,13.70
2023-04-15T01:10:36.086Z,14.05
2023-04-15T01:13:39.049Z,13.73
2023-04-15T01:16:42.410Z,17.20
2023-04-15T01:19:45.375Z,14.05
2023-04-15T01:22:48.470Z,14.23
2023-04-15T01:25:51.445Z,13.13
2023-04-15T01:28:56.492Z,15.57
2023-04-15T01:32:00.324Z,12.47
2023-04-15T01:35:03.810Z,12.80
2023-04-15T01:38:07.833Z,10.82
2023-04-15T01:41:11.145Z,10.93
2023-04-15T01:44:14.180Z,11.13
2023-04-15T01:47:17.098Z,10.93
2023-04-15T01:50:20.629Z,9.93
2023-04-15T01:53:25.360Z,11.57
2023-04-15T01:56:28.331Z,11.80
2023-04-15T01:59:32.284Z,10.27
2023-04-15T02:02:36.122Z,11.60
2023-04-15T02:05:39.222Z,12.63
2023-04-15T02:08:42.187Z,14.57
2023-04-15T02:11:45.816Z,13.05
2023-04-15T02:14:48.873Z,13.40
2023-04-15T02:17:55.376Z,13.87
2023-04-15T02:20:58.915Z,14.40
2023-04-15T02:24:02.581Z,11.65
2023-04-15T02:27:05.564Z,13.30
2023-04-15T02:30:09.325Z,12.40
2023-04-15T02:33:12.388Z,13.13
2023-04-15T02:36:15.655Z,12.23
2023-04-15T02:39:18.889Z,11.82
2023-04-15T02:42:22.972Z,12.95
2023-04-15T02:45:28.129Z,9.63
2023-04-15T02:48:31.145Z,10.50
2023-04-15T02:51:34.095Z,11.00
2023-04-15T02:54:37.322Z,11.15
2023-04-15T02:57:41.269Z,11.50
2023-04-15T03:00:46.048Z,11.47
2023-04-15T03:03:49.161Z,10.77
2023-04-15T03:06:52.189Z,12.35
2023-04-15T03:09:55.405Z,11.55
2023-04-15T03:12:58.401Z,11.60
2023-04-15T03:16:01.782Z,12.23
2023-04-15T03:19:06.646Z,12.10
2023-04-15T03:22:10.555Z,11.63
2023-04-15T03:25:13.526Z,10.98
2023-04-15T03:28:16.678Z,11.60
2023-04-15T03:31:20.025Z,12.10
2023-04-15T03:34:23.219Z,12.00
2023-04-15T03:37:26.401Z,11.80
2023-04-15T03:40:29.388Z,13.02
2023-04-15T03:43:32.378Z,12.07
2023-04-15T03:46:35.442Z,11.90
2023-04-15T03:49:38.457Z,12.07
2023-04-15T03:52:42.024Z,11.15
2023-04-15T03:55:45.050Z,11.13
2023-04-15T03:58:47.973Z,14.68
2023-04-15T04:01:51.090Z,12.47
2023-04-15T04:04:54.085Z,14.20
2023-04-15T04:07:57.039Z,14.38
2023-04-15T04:11:00.289Z,12.55
2023-04-15T04:14:03.235Z,15.50
2023-04-15T04:17:06.743Z,16.73
2023-04-15T04:20:10.093Z,13.37
2023-04-15T04:23:13.051Z,12.68
2023-04-15T04:26:16.316Z,12.45
2023-04-15T04:29:19.334Z,13.23
2023-04-15T04:32:23.312Z,13.03
2023-04-15T04:35:26.483Z,12.03
2023-04-15T04:38:29.448Z,14.52
2023-04-15T04:41:32.497Z,13.80
2023-04-15T04:44:35.430Z,14.30
2023-04-15T04:47:38.553Z,13.47
2023-04-15T04:50:42.034Z,15.03
2023-04-15T04:53:45.040Z,14.55
2023-04-15T04:56:47.960Z,13.65
2023-04-15T04:59:51.234Z,13.57
2023-04-15T05:02:54.306Z,13.90
2023-04-15T05:05:57.358Z,14.20
2023-04-15T05:09:01.361Z,14.38
2023-04-15T05:12:09.024Z,12.95
2023-04-15T05:15:12.322Z,14.10
2023-04-15T05:18:15.508Z,15.87
2023-04-15T05:21:18.438Z,13.40
2023-04-15T05:24:21.516Z,14.00
2023-04-15T05:27:25.042Z,11.32
2023-04-15T05:30:28.005Z,11.95
2023-04-15T05:33:31.193Z,12.17
2023-04-15T05:36:34.133Z,10.17
2023-04-15T05:39:37.169Z,11.70
2023-04-15T05:42:40.156Z,11.50
2023-04-15T05:45:43.096Z,12.60
2023-04-15T05:48:46.113Z,11.30
2023-04-15T05:51:49.225Z,11.70
2023-04-15T05:54:52.132Z,11.88
2023-04-15T05:57:55.087Z,12.18
2023-04-15T06:00:58.062Z,12.77
2023-04-15T06:04:01.914Z,11.97
2023-04-15T06:07:04.936Z,11.17
2023-04-15T06:10:08.462Z,10.88
2023-04-15T06:13:11.369Z,12.50
2023-04-15T06:16:14.426Z,11.68
2023-04-15T06:19:17.365Z,11.90
2023-04-15T06:22:20.475Z,13.00
2023-04-15T06:25:24.083Z,12.70
2023-04-15T06:28:27.042Z,10.68
2023-04-15T06:31:30.205Z,15.00
2023-04-15T06:34:33.163Z,12.23
2023-04-15T06:37:36.497Z,10.07
2023-04-15T06:40:39.462Z,9.98
2023-04-15T06:43:42.528Z,9.52
2023-04-15T06:46:45.567Z,11.13
2023-04-15T06:49:48.537Z,11.17
2023-04-15T06:52:51.495Z,10.53
2023-04-15T06:55:54.565Z,11.32
2023-04-15T06:58:57.786Z,12.95
2023-04-15T07:02:00.773Z,10.98
2023-04-15T07:05:04.752Z,9.87
2023-04-15T07:08:07.717Z,10.77
2023-04-15T07:11:10.661Z,9.80
2023-04-15T07:14:13.582Z,10.40
2023-04-15T07:17:16.726Z,9.50
2023-04-15T07:20:19.807Z,11.03
2023-04-15T07:23:23.282Z,9.67
2023-04-15T07:26:26.243Z,9.32
2023-04-15T07:29:29.204Z,8.98
2023-04-15T07:32:32.239Z,9.60
2023-04-15T07:35:35.265Z,9.60
2023-04-15T07:38:38.247Z,9.57
2023-04-15T07:41:41.194Z,9.43
2023-04-15T07:44:44.143Z,10.30
2023-04-15T07:47:47.277Z,9.63
2023-04-15T07:50:50.295Z,9.90
2023-04-15T07:53:53.356Z,8.70
2023-04-15T07:56:56.590Z,9.38
2023-04-15T07:59:59.589Z,9.43
2023-04-15T08:03:03.298Z,8.05
2023-04-15T08:06:06.681Z,8.83
2023-04-15T08:09:09.636Z,8.17
2023-04-15T08:12:13.515Z,10.77
2023-04-15T08:15:18.135Z,8.10
2023-04-15T08:18:21.323Z,6.93
2023-04-15T08:21:24.632Z,7.40
2023-04-15T08:24:27.617Z,7.60
2023-04-15T08:27:30.586Z,6.18
2023-04-15T08:30:33.774Z,6.45
2023-04-15T08:33:36.967Z,5.88
2023-04-15T08:36:39.927Z,6.30
2023-04-15T08:39:44.210Z,5.60
2023-04-15T08:42:48.784Z,5.63
2023-04-15T08:45:52.240Z,6.65
2023-04-15T08:48:57.354Z,4.60
2023-04-15T08:52:00.662Z,4.73
2023-04-15T08:55:04.951Z,4.53
2023-04-15T08:58:07.958Z,5.60
2023-04-15T09:01:12.025Z,6.32
2023-04-15T09:04:15.088Z,4.60
2023-04-15T09:07:18.208Z,4.40
2023-04-15T09:10:21.135Z,4.23
2023-04-15T09:13:24.076Z,3.75
2023-04-15T09:16:27.444Z,5.32
2023-04-15T09:19:30.540Z,4.00
2023-04-15T09:22:34.782Z,5.50
2023-04-15T09:25:37.802Z,5.80
2023-04-15T09:28:43.843Z,4.82
2023-04-15T09:31:47.200Z,4.05
2023-04-15T09:34:50.137Z,4.50
2023-04-15T09:37:53.524Z,4.97
2023-04-15T09:40:56.618Z,4.93
2023-04-15T09:43:59.780Z,4.72
2023-04-15T09:47:02.837Z,4.45
2023-04-15T09:50:06.247Z,4.05
2023-04-15T09:53:12.553Z,4.73
2023-04-15T09:56:15.524Z,3.83
2023-04-15T09:59:20.109Z,3.58
2023-04-15T10:02:24.309Z,3.75
2023-04-15T10:05:28.005Z,3.75
2023-04-15T10:08:33.173Z,4.13
2023-04-15T10:11:36.106Z,4.57
2023-04-15T10:14:39.674Z,4.38
2023-04-15T10:17:44.070Z,4.10
2023-04-15T10:20:48.055Z,4.25
2023-04-15T10:23:51.477Z,3.03
2023-04-15T10:26:54.672Z,3.63
2023-04-15T10:29:57.879Z,3.60
2023-04-15T10:33:02.118Z,4.05
2023-04-15T10:36:06.485Z,3.47
2023-04-15T10:39:34.512Z,4.40
2023-04-15T10:42:37.828Z,5.87
2023-04-15T10:45:40.781Z,5.28
2023-04-15T10:48:53.670Z,5.63
2023-04-15T10:51:59.921Z,6.38
2023-04-15T10:55:18.345Z,6.60
2023-04-15T10:58:23.148Z,6.20
2023-04-15T11:01:53.244Z,7.20
2023-04-15T11:05:00.933Z,6.50
2023-04-15T11:08:04.697Z,5.63
2023-04-15T11:11:07.756Z,5.77
2023-04-15T11:14:16.300Z,4.07
2023-04-15T11:17:29.051Z,5.30
2023-04-15T11:20:32.089Z,4.32
2023-04-15T11:23:39.755Z,4.38
2023-04-15T11:26:42.741Z,4.50
2023-04-15T11:29:45.648Z,4.67
2023-04-15T11:32:49.942Z,3.90
2023-04-15T11:35:56.029Z,4.63
2023-04-15T11:38:59.647Z,4.43
2023-04-15T11:42:02.731Z,5.27
2023-04-15T11:45:13.137Z,4.73
2023-04-15T11:48:16.309Z,4.18
2023-04-15T11:51:21.858Z,5.80
2023-04-15T11:54:24.846Z,7.82
2023-04-15T11:57:32.505Z,3.80
2023-04-15T12:00:35.814Z,6.10
2023-04-15T12:03:43.905Z,5.07
2023-04-15T12:06:47.126Z,4.18
2023-04-15T12:09:56.847Z,3.85
2023-04-15T12:12:59.774Z,3.93
2023-04-15T12:16:04.396Z,3.43
2023-04-15T12:19:12.182Z,4.15
2023-04-15T12:22:16.610Z,3.05
2023-04-15T12:25:19.562Z,4.93
2023-04-15T12:28:22.462Z,4.27
2023-04-15T12:31:25.495Z,3.60
2023-04-15T12:34:36.431Z,4.05
2023-04-15T12:37:39.445Z,3.03
2023-04-15T12:40:42.412Z,2.40
2023-04-15T12:43:46.796Z,4.57
2023-04-15T12:46:50.045Z,3.50
2023-04-15T12:49:53.797Z,3.47
2023-04-15T12:52:57.085Z,2.38
2023-04-15T12:56:00.050Z,12.32
2023-04-15T12:59:03.156Z,3.20
2023-04-15T13:02:06.304Z,10.47
2023-04-15T13:05:09.501Z,5.00
2023-04-15T13:08:12.511Z,3.58
2023-04-15T13:11:15.448Z,3.25
2023-04-15T13:14:18.403Z,3.43
2023-04-15T13:17:22.144Z,3.47
2023-04-15T13:20:27.044Z,2.97
2023-04-15T13:23:29.998Z,4.70
2023-04-15T13:26:33.014Z,4.22
2023-04-15T13:29:35.960Z,4.30
2023-04-15T13:32:38.942Z,5.53
2023-04-15T13:35:41.963Z,5.57
2023-04-15T13:38:44.934Z,5.05
2023-04-15T13:41:48.571Z,5.85
2023-04-15T13:44:51.776Z,4.90
2023-04-15T13:47:55.838Z,5.67
2023-04-15T13:50:58.826Z,5.88
2023-04-15T13:54:02.033Z,4.90
2023-04-15T13:57:05.727Z,7.15
2023-04-15T14:00:09.211Z,5.20
2023-04-15T14:03:12.756Z,6.57
2023-04-15T14:06:15.778Z,6.05
2023-04-15T14:09:18.815Z,6.57
2023-04-15T14:12:21.802Z,7.32
2023-04-15T14:15:24.730Z,7.63
2023-04-15T14:18:27.678Z,6.53
2023-04-15T14:21:32.137Z,6.45
2023-04-15T14:24:35.250Z,5.60
2023-04-15T14:27:38.222Z,6.60
2023-04-15T14:30:41.235Z,7.67
2023-04-15T14:33:44.166Z,5.43
2023-04-15T14:36:47.135Z,6.72
2023-04-15T14:39:50.085Z,6.60
2023-04-15T14:42:53.005Z,8.52
2023-04-15T14:45:56.228Z,6.43
2023-04-15T14:48:59.182Z,85.33
2023-04-15T14:52:02.145Z,10.32
2023-04-15T14:55:13.959Z,6.65
2023-04-15T14:58:16.897Z,8.02
2023-04-15T15:01:20.581Z,7.80
2023-04-15T15:04:23.642Z,6.90
2023-04-15T15:07:26.616Z,7.10
2023-04-15T15:10:33.119Z,7.80
2023-04-15T15:13:51.795Z,12.35
2023-04-15T15:16:54.773Z,11.60
2023-04-15T15:19:57.816Z,7.90
2023-04-15T15:23:01.160Z,10.43
2023-04-15T15:26:04.163Z,6.75
2023-04-15T15:29:07.155Z,7.22
2023-04-15T15:32:10.329Z,9.83
2023-04-15T15:35:13.286Z,7.27
2023-04-15T15:38:16.546Z,7.32
2023-04-15T15:41:19.468Z,6.78
2023-04-15T15:44:22.427Z,7.50
2023-04-15T15:47:26.915Z,5.87
2023-04-15T15:50:30.024Z,6.93
2023-04-15T15:53:32.983Z,9.02
2023-04-15T15:56:38.466Z,5.15
2023-04-15T15:59:43.761Z,7.30
2023-04-15T16:03:04.371Z,4.53
2023-04-15T16:06:09.444Z,4.57
2023-04-15T16:09:12.580Z,4.60
2023-04-15T16:12:15.548Z,4.57
2023-04-15T16:15:18.572Z,2.70
2023-04-15T16:18:21.551Z,3.90
2023-04-15T16:21:27.425Z,4.20
2023-04-15T16:24:31.523Z,3.63
2023-04-15T16:27:54.074Z,4.70
2023-04-15T16:31:00.019Z,3.47
2023-04-15T16:34:03.491Z,2.50
2023-04-15T16:37:06.459Z,3.37
2023-04-15T16:40:10.020Z,3.17
2023-04-15T16:43:12.964Z,4.57
2023-04-15T16:46:16.012Z,5.00
2023-04-15T16:49:19.084Z,4.70
2023-04-15T16:52:22.021Z,4.77
2023-04-15T16:55:25.028Z,5.45
2023-04-15T16:58:28.834Z,6.88
2023-04-15T17:01:31.903Z,7.65
2023-04-15T17:04:35.482Z,6.33
2023-04-15T17:07:38.535Z,6.53
2023-04-15T17:10:41.705Z,5.35
2023-04-15T17:13:44.638Z,7.07
2023-04-15T17:16:47.689Z,6.38
2023-04-15T17:19:50.710Z,7.17
2023-04-15T17:22:53.810Z,8.13
2023-04-15T17:25:56.733Z,8.15
2023-04-15T17:28:59.643Z,7.13
2023-04-15T17:32:03.685Z,8.77
2023-04-15T17:35:07.220Z,6.33
2023-04-15T17:38:10.222Z,9.67
2023-04-15T17:41:13.298Z,17.00
2023-04-15T17:44:16.221Z,31.58
2023-04-15T17:47:19.148Z,30.15
2023-04-15T17:50:22.178Z,47.47
2023-04-15T17:53:25.099Z,36.20
2023-04-15T17:56:29.326Z,18.08
2023-04-15T17:59:33.839Z,16.30
2023-04-15T18:02:37.426Z,13.38
2023-04-15T18:05:42.562Z,12.87
2023-04-15T18:08:45.763Z,15.07
2023-04-15T18:11:49.069Z,21.98
2023-04-15T18:14:52.565Z,24.70
2023-04-15T18:17:55.755Z,20.60
2023-04-15T18:20:58.769Z,12.03
2023-04-15T18:24:01.868Z,10.10
2023-04-15T18:27:04.808Z,11.25
2023-04-15T18:30:11.221Z,12.65
2023-04-15T18:33:14.215Z,16.77
2023-04-15T18:36:17.139Z,16.40
2023-04-15T18:39:20.351Z,24.37
2023-04-15T18:42:24.138Z,33.03
2023-04-15T18:45:27.089Z,28.63
2023-04-15T18:48:30.635Z,29.40
2023-04-15T18:51:33.655Z,51.37
2023-04-15T18:54:36.904Z,60.23
2023-04-15T18:57:44.409Z,58.20
2023-04-15T19:00:47.805Z,48.72
2023-04-15T19:03:51.071Z,44.70
2023-04-15T19:06:54.036Z,39.53
2023-04-15T19:09:57.026Z,27.90
2023-04-15T19:13:00.040Z,22.65
2023-04-15T19:16:03.300Z,38.55
2023-04-15T19:19:06.893Z,41.95
2023-04-15T19:22:10.160Z,32.93
2023-04-15T19:25:13.067Z,27.93
2023-04-15T19:28:16.046Z,19.48
2023-04-15T19:31:19.064Z,26.38
2023-04-15T19:34:22.048Z,13.85
2023-04-15T19:37:24.987Z,19.53
2023-04-15T19:40:27.994Z,17.47
2023-04-15T19:43:32.227Z,14.77
2023-04-15T19:46:35.318Z,16.98
2023-04-15T19:49:38.579Z,24.08
2023-04-15T19:52:41.536Z,25.83
2023-04-15T19:55:44.533Z,23.93
2023-04-15T19:58:52.684Z,26.63
2023-04-15T20:01:55.856Z,25.15
2023-04-15T20:04:58.829Z,27.13
2023-04-15T20:08:02.282Z,24.77
2023-04-15T20:11:05.692Z,27.80
2023-04-15T20:14:08.671Z,30.73
2023-04-15T20:17:11.671Z,27.67
2023-04-15T20:20:14.623Z,36.00
2023-04-15T20:23:17.719Z,46.97
2023-04-15T20:26:21.533Z,46.93
2023-04-15T20:29:24.607Z,44.58
2023-04-15T20:32:28.408Z,42.70
2023-04-15T20:35:31.584Z,43.00
2023-04-15T20:38:34.521Z,38.93
2023-04-15T20:41:37.466Z,39.93
2023-04-15T20:44:40.734Z,40.17
2023-04-15T20:47:43.833Z,44.80
2023-04-15T20:50:46.789Z,36.30
2023-04-15T20:53:49.756Z,38.23
2023-04-15T20:56:52.876Z,34.97
2023-04-15T20:59:55.903Z,41.95
2023-04-15T21:02:59.016Z,42.17
2023-04-15T21:06:02.043Z,52.25
2023-04-15T21:09:05.210Z,63.10
2023-04-15T21:12:08.798Z,48.97
2023-04-15T21:15:11.821Z,42.90
2023-04-15T21:18:14.747Z,42.58
2023-04-15T21:21:17.662Z,42.70
2023-04-15T21:24:20.590Z,38.77
2023-04-15T21:27:23.586Z,36.47
2023-04-15T21:30:26.715Z,32.05
2023-04-15T21:33:29.628Z,30.05
2023-04-15T21:36:32.733Z,34.55
2023-04-15T21:39:35.903Z,36.60
2023-04-15T21:42:38.917Z,34.80
2023-04-15T21:45:44.417Z,29.85
2023-04-15T21:49:07.592Z,27.63
2023-04-15T21:52:10.743Z,28.02
2023-04-15T21:55:13.649Z,29.60
2023-04-15T21:58:16.619Z,28.17
2023-04-15T22:01:19.669Z,22.67
2023-04-15T22:04:22.863Z,31.27
2023-04-15T22:07:26.564Z,34.83
2023-04-15T22:10:29.527Z,40.67
2023-04-15T22:13:32.461Z,32.93
2023-04-15T22:16:35.644Z,24.17
2023-04-15T22:19:39.467Z,22.92
2023-04-15T22:22:44.165Z,32.35
2023-04-15T22:25:47.920Z,29.20
2023-04-15T22:28:51.496Z,26.97
2023-04-15T22:31:54.877Z,28.85
2023-04-15T22:34:57.854Z,25.83
2023-04-15T22:38:01.339Z,23.83
2023-04-15T22:41:04.323Z,25.43
2023-04-15T22:44:07.279Z,20.20
2023-04-15T22:47:10.223Z,23.77
2023-04-15T22:50:13.192Z,23.85
2023-04-15T22:53:17.436Z,25.65
2023-04-15T22:56:21.292Z,21.23
2023-04-15T22:59:24.425Z,16.53
2023-04-15T23:02:27.667Z,16.92
2023-04-15T23:05:31.143Z,20.65
2023-04-15T23:08:34.166Z,23.27
2023-04-15T23:11:37.193Z,21.13
2023-04-15T23:14:40.351Z,23.33
2023-04-15T23:17:43.565Z,26.45
2023-04-15T23:20:47.030Z,21.48
2023-04-15T23:23:49.938Z,17.05
2023-04-15T23:26:53.324Z,19.73
2023-04-15T23:29:56.387Z,16.57
2023-04-15T23:32:59.393Z,14.93
2023-04-15T23:36:02.389Z,15.48
2023-04-15T23:39:05.414Z,17.48
2023-04-15T23:42:08.342Z,18.47
2023-04-15T23:45:11.834Z,19.37
2023-04-15T23:48:14.840Z,18.92
2023-04-15T23:51:17.814Z,18.85
2023-04-15T23:54:20.767Z,21.15
2023-04-15T23:57:23.746Z,20.70
